Terminal Aerodrome Forecast
Issued by NWS Binghamton, NY

Home | Current Version | Previous Version | Text Only | Print | Product List | Glossary On
Versions: 1 2 3 4 5 6 7 8 9 10 11 12 13 14 15 16 17
780
FTUS41 KBGM 221720
TAFAVP
TAF
KAVP 221720Z 2218/2318 20006KT P6SM OVC020
     FM230100 VRB03KT P6SM BKN040
     FM230900 05004KT P6SM SCT050=

USA.gov is the U.S. government's official web portal to all federal, state and local government web resources and services.